createdAt,value
2022-08-22T00:00:31.855Z,2.20
2022-08-22T00:03:02.740Z,0.73
2022-08-22T00:03:09.502Z,0.95
2022-08-22T00:03:39.605Z,2.00
2022-08-22T00:09:50.482Z,1.65
2022-08-22T00:12:51.920Z,1.92
2022-08-22T00:16:14.471Z,2.00
2022-08-22T00:19:08.939Z,2.17
2022-08-22T00:22:21.513Z,1.80
2022-08-22T00:25:51.047Z,1.90
2022-08-22T00:29:08.670Z,1.80
2022-08-22T00:32:12.670Z,1.60
2022-08-22T00:35:07.330Z,1.70
2022-08-22T00:38:39.892Z,2.05
2022-08-22T00:42:05.382Z,1.70
2022-08-22T00:45:07.046Z,2.45
2022-08-22T00:48:11.071Z,2.00
2022-08-22T00:51:24.205Z,2.13
2022-08-22T00:54:46.154Z,2.58
2022-08-22T00:57:43.819Z,2.42
2022-08-22T01:00:46.336Z,2.33
2022-08-22T01:03:49.980Z,1.65
2022-08-22T01:07:10.564Z,1.63
2022-08-22T01:10:20.574Z,1.58
2022-08-22T01:13:26.037Z,1.70
2022-08-22T01:16:47.524Z,1.20
2022-08-22T01:19:54.305Z,1.05
2022-08-22T01:23:07.056Z,1.23
2022-08-22T01:26:44.053Z,1.25
2022-08-22T01:30:17.821Z,1.35
2022-08-22T01:33:33.959Z,1.27
2022-08-22T01:37:05.712Z,1.67
2022-08-22T01:40:21.723Z,1.25
2022-08-22T01:43:21.624Z,1.73
2022-08-22T01:46:52.790Z,1.25
2022-08-22T01:49:54.763Z,1.33
2022-08-22T01:53:04.295Z,1.20
2022-08-22T01:56:22.349Z,1.27
2022-08-22T01:59:35.709Z,1.20
2022-08-22T02:03:01.415Z,1.10
2022-08-22T02:06:20.439Z,1.40
2022-08-22T02:09:29.130Z,1.60
2022-08-22T02:12:49.670Z,1.20
2022-08-22T02:16:03.545Z,1.50
2022-08-22T02:19:17.684Z,1.50
2022-08-22T02:23:04.662Z,1.60
2022-08-22T02:26:05.393Z,1.85
2022-08-22T02:29:09.583Z,1.83
2022-08-22T02:32:18.270Z,1.70
2022-08-22T02:35:28.900Z,1.25
2022-08-22T02:38:26.529Z,1.67
2022-08-22T02:41:45.849Z,1.40
2022-08-22T02:45:02.651Z,1.35
2022-08-22T02:48:33.797Z,1.50
2022-08-22T02:51:34.311Z,1.80
2022-08-22T02:54:58.031Z,1.08
2022-08-22T02:58:22.251Z,1.40
2022-08-22T03:01:41.985Z,1.48
2022-08-22T03:04:47.160Z,1.40
2022-08-22T03:07:47.725Z,1.38
2022-08-22T03:10:49.340Z,1.38
2022-08-22T03:14:02.812Z,1.40
2022-08-22T03:17:07.131Z,1.10
2022-08-22T03:20:21.544Z,0.88
2022-08-22T03:23:32.892Z,0.88
2022-08-22T03:26:52.871Z,1.15
2022-08-22T03:29:55.644Z,0.98
2022-08-22T03:33:00.975Z,0.90
2022-08-22T03:36:07.783Z,1.10
2022-08-22T03:39:18.542Z,1.30
2022-08-22T03:42:21.955Z,1.00
2022-08-22T03:45:41.232Z,0.70
2022-08-22T03:48:59.232Z,0.70
2022-08-22T03:52:07.690Z,1.08
2022-08-22T03:55:28.210Z,0.80
2022-08-22T03:58:40.935Z,1.02
2022-08-22T04:02:04.397Z,1.00
2022-08-22T04:05:49.171Z,1.02
2022-08-22T04:08:59.924Z,0.95
2022-08-22T04:12:06.729Z,1.55
2022-08-22T04:15:28.900Z,1.30
2022-08-22T04:18:44.923Z,1.35
2022-08-22T04:21:58.509Z,0.95
2022-08-22T04:25:08.150Z,1.52
2022-08-22T04:28:27.096Z,1.08
2022-08-22T04:31:29.179Z,1.33
2022-08-22T04:34:38.447Z,1.25
2022-08-22T04:37:48.303Z,1.30
2022-08-22T04:40:53.959Z,2.17
2022-08-22T04:44:09.372Z,1.15
2022-08-22T04:47:16.321Z,2.00
2022-08-22T04:50:26.212Z,1.40
2022-08-22T04:53:24.730Z,1.40
2022-08-22T04:56:44.476Z,1.50
2022-08-22T04:59:40.486Z,1.63
2022-08-22T05:02:40.039Z,1.25
2022-08-22T05:05:41.400Z,1.20
2022-08-22T05:08:41.915Z,1.17
2022-08-22T05:11:40.133Z,1.30
2022-08-22T05:14:54.551Z,0.93
2022-08-22T05:17:51.502Z,1.08
2022-08-22T05:20:50.152Z,1.13
2022-08-22T05:23:55.403Z,0.73
2022-08-22T05:26:53.881Z,0.90
2022-08-22T05:29:51.913Z,0.75
2022-08-22T05:33:04.738Z,1.45
2022-08-22T05:36:11.984Z,1.10
2022-08-22T05:39:18.075Z,1.15
2022-08-22T05:42:19.603Z,1.17
2022-08-22T05:45:16.088Z,1.08
2022-08-22T05:48:20.724Z,1.30
2022-08-22T05:51:27.192Z,1.10
2022-08-22T05:54:33.636Z,0.85
2022-08-22T05:57:53.809Z,1.20
2022-08-22T06:00:53.593Z,0.80
2022-08-22T06:04:24.815Z,1.35
2022-08-22T06:07:29.178Z,0.90
2022-08-22T06:10:48.219Z,0.80
2022-08-22T06:13:53.328Z,1.00
2022-08-22T06:17:13.823Z,1.00
2022-08-22T06:20:10.932Z,0.90
2022-08-22T06:23:09.017Z,1.10
2022-08-22T06:26:05.544Z,0.85
2022-08-22T06:29:23.693Z,0.90
2022-08-22T06:32:32.630Z,0.82
2022-08-22T06:36:01.594Z,1.05
2022-08-22T06:39:02.485Z,0.70
2022-08-22T06:42:24.086Z,1.30
2022-08-22T06:45:27.354Z,1.15
2022-08-22T06:48:25.057Z,0.93
2022-08-22T06:51:22.022Z,0.85
2022-08-22T06:54:23.563Z,0.90
2022-08-22T06:57:52.429Z,0.90
2022-08-22T07:00:53.573Z,0.80
2022-08-22T07:04:08.688Z,0.70
2022-08-22T07:07:04.678Z,1.10
2022-08-22T07:09:59.312Z,1.27
2022-08-22T07:12:58.468Z,1.23
2022-08-22T07:16:03.973Z,1.38
2022-08-22T07:18:58.752Z,1.33
2022-08-22T07:21:53.663Z,0.93
2022-08-22T07:24:59.857Z,1.33
2022-08-22T07:28:19.779Z,1.48
2022-08-22T07:31:23.242Z,1.25
2022-08-22T07:34:39.252Z,1.23
2022-08-22T07:37:48.947Z,1.35
2022-08-22T07:41:12.696Z,1.08
2022-08-22T07:44:25.276Z,1.42
2022-08-22T07:47:26.290Z,1.55
2022-08-22T07:50:36.721Z,1.45
2022-08-22T07:53:35.439Z,1.42
2022-08-22T07:56:35.468Z,1.42
2022-08-22T07:59:32.397Z,1.40
2022-08-22T08:02:27.954Z,1.30
2022-08-22T08:05:29.700Z,1.23
2022-08-22T08:08:45.866Z,1.67
2022-08-22T08:11:43.812Z,1.67
2022-08-22T08:14:44.344Z,1.95
2022-08-22T08:17:41.273Z,1.20
2022-08-22T08:20:38.019Z,1.17
2022-08-22T08:23:43.596Z,0.90
2022-08-22T08:27:03.224Z,1.00
2022-08-22T08:30:06.222Z,1.00
2022-08-22T08:33:25.179Z,1.02
2022-08-22T08:36:47.140Z,0.98
2022-08-22T08:39:45.176Z,1.58
2022-08-22T08:43:18.561Z,1.20
2022-08-22T08:46:35.806Z,0.98
2022-08-22T08:50:15.934Z,1.50
2022-08-22T08:53:16.732Z,1.20
2022-08-22T08:56:42.708Z,1.17
2022-08-22T08:59:50.810Z,1.27
2022-08-22T09:03:09.933Z,1.17
2022-08-22T09:06:16.847Z,1.00
2022-08-22T09:09:30.270Z,0.90
2022-08-22T09:13:11.006Z,1.13
2022-08-22T09:16:51.971Z,1.00
2022-08-22T09:20:19.610Z,0.93
2022-08-22T09:23:27.023Z,2.38
2022-08-22T09:26:26.587Z,2.53
2022-08-22T09:29:55.249Z,1.20
2022-08-22T09:33:17.862Z,1.60
2022-08-22T09:36:44.753Z,3.85
2022-08-22T09:40:05.121Z,2.53
2022-08-22T09:43:11.791Z,2.13
2022-08-22T09:46:31.593Z,2.08
2022-08-22T09:50:08.853Z,1.88
2022-08-22T09:53:22.701Z,1.50
2022-08-22T09:56:42.286Z,2.38
2022-08-22T09:59:51.379Z,3.40
2022-08-22T10:02:55.833Z,0.95
2022-08-22T10:06:01.578Z,1.42
2022-08-22T10:09:09.940Z,1.00
2022-08-22T10:12:24.151Z,1.17
2022-08-22T10:15:44.574Z,1.40
2022-08-22T10:18:44.010Z,1.30
2022-08-22T10:21:59.392Z,1.33
2022-08-22T10:25:22.403Z,1.55
2022-08-22T10:28:35.109Z,0.95
2022-08-22T10:31:59.283Z,1.27
2022-08-22T10:34:59.849Z,1.60
2022-08-22T10:38:01.218Z,1.00
2022-08-22T10:41:09.294Z,1.17
2022-08-22T10:44:18.046Z,1.10
2022-08-22T10:47:27.190Z,1.02
2022-08-22T10:53:47.491Z,1.05
2022-08-22T10:56:57.764Z,1.05
2022-08-22T11:00:12.978Z,0.90
2022-08-22T11:03:26.279Z,1.10
2022-08-22T11:06:31.348Z,0.80
2022-08-22T11:10:00.037Z,0.98
2022-08-22T11:13:27.641Z,0.90
2022-08-22T11:16:57.311Z,1.17
2022-08-22T11:20:10.040Z,1.08
2022-08-22T11:23:33.164Z,6.35
2022-08-22T11:26:47.412Z,1.52
2022-08-22T11:29:49.675Z,2.10
2022-08-22T11:33:07.820Z,4.68
2022-08-22T11:36:19.606Z,8.05
2022-08-22T11:39:34.548Z,26.20
2022-08-22T11:42:49.557Z,29.05
2022-08-22T11:45:50.763Z,23.02
2022-08-22T11:49:02.427Z,15.13
2022-08-22T11:52:30.314Z,6.57
2022-08-22T11:55:32.545Z,2.50
2022-08-22T11:58:56.450Z,1.77
2022-08-22T12:02:04.996Z,1.38
2022-08-22T12:05:24.572Z,1.40
2022-08-22T12:08:42.023Z,1.45
2022-08-22T12:11:36.449Z,2.05
2022-08-22T12:14:34.463Z,2.47
2022-08-22T12:17:55.133Z,1.85
2022-08-22T12:20:57.221Z,2.05
2022-08-22T12:24:19.125Z,1.48
2022-08-22T12:27:28.915Z,1.33
2022-08-22T12:30:49.124Z,3.30
2022-08-22T12:33:55.061Z,1.15
2022-08-22T12:37:27.706Z,0.90
2022-08-22T12:40:28.614Z,0.80
2022-08-22T12:43:39.902Z,0.90
2022-08-22T12:46:55.656Z,1.10
2022-08-22T12:50:08.384Z,0.85
2022-08-22T12:53:27.577Z,0.85
2022-08-22T12:56:34.362Z,0.80
2022-08-22T12:59:53.879Z,0.93
2022-08-22T13:02:53.224Z,1.10
2022-08-22T13:05:56.284Z,1.00
2022-08-22T13:08:55.741Z,1.10
2022-08-22T13:11:54.421Z,1.80
2022-08-22T13:15:01.615Z,1.77
2022-08-22T13:18:13.503Z,1.92
2022-08-22T13:21:18.766Z,1.83
2022-08-22T13:24:22.673Z,1.45
2022-08-22T13:27:50.416Z,1.35
2022-08-22T13:30:48.237Z,1.42
2022-08-22T13:33:49.080Z,1.27
2022-08-22T13:36:51.976Z,1.17
2022-08-22T13:39:51.146Z,1.67
2022-08-22T13:42:54.028Z,1.40
2022-08-22T13:46:03.605Z,1.55
2022-08-22T13:49:03.756Z,2.30
2022-08-22T13:52:29.600Z,2.75
2022-08-22T13:55:37.973Z,3.38
2022-08-22T13:58:41.705Z,2.40
2022-08-22T14:01:46.754Z,1.67
2022-08-22T14:04:44.781Z,1.02
2022-08-22T14:07:53.928Z,1.00
2022-08-22T14:10:57.761Z,0.70
2022-08-22T14:13:56.817Z,0.70
2022-08-22T14:16:56.251Z,0.80
2022-08-22T14:20:01.915Z,0.93
2022-08-22T14:23:04.219Z,1.00
2022-08-22T14:25:59.788Z,1.02
2022-08-22T14:28:59.769Z,0.80
2022-08-22T14:32:25.942Z,0.85
2022-08-22T14:36:02.139Z,0.82
2022-08-22T14:39:13.268Z,0.55
2022-08-22T14:42:13.545Z,0.70
2022-08-22T14:45:17.427Z,0.70
2022-08-22T14:48:31.369Z,0.60
2022-08-22T14:51:28.259Z,0.70
2022-08-22T14:54:29.111Z,0.65
2022-08-22T14:57:24.112Z,0.75
2022-08-22T15:00:35.280Z,1.00
2022-08-22T15:03:38.736Z,1.08
2022-08-22T15:06:38.023Z,0.80
2022-08-22T15:09:40.415Z,1.00
2022-08-22T15:12:42.317Z,1.30
2022-08-22T15:15:52.790Z,1.60
2022-08-22T15:18:51.671Z,1.70
2022-08-22T15:21:48.185Z,2.05
2022-08-22T15:25:19.889Z,1.85
2022-08-22T15:28:20.008Z,1.23
2022-08-22T15:31:20.708Z,1.05
2022-08-22T15:34:33.838Z,0.80
2022-08-22T15:37:34.016Z,0.95
2022-08-22T15:40:41.577Z,0.73
2022-08-22T15:46:57.088Z,0.77
2022-08-22T15:50:00.122Z,0.80
2022-08-22T15:53:20.703Z,0.82
2022-08-22T15:56:18.137Z,0.82
2022-08-22T15:59:27.623Z,0.93
2022-08-22T16:02:39.450Z,0.47
2022-08-22T16:05:46.582Z,0.85
2022-08-22T16:08:56.613Z,0.90
2022-08-22T16:11:57.075Z,1.02
2022-08-22T16:14:54.208Z,0.82
2022-08-22T16:17:53.504Z,0.70
2022-08-22T16:20:54.972Z,0.88
2022-08-22T16:23:55.463Z,1.05
2022-08-22T16:26:51.255Z,1.40
2022-08-22T16:29:46.806Z,1.48
2022-08-22T16:32:42.130Z,1.77
2022-08-22T16:36:13.452Z,1.48
2022-08-22T16:39:22.865Z,1.40
2022-08-22T16:42:17.715Z,1.25
2022-08-22T16:45:38.306Z,0.73
2022-08-22T16:48:38.824Z,0.90
2022-08-22T16:51:33.409Z,0.80
2022-08-22T16:54:48.374Z,0.60
2022-08-22T16:58:09.719Z,0.90
2022-08-22T17:01:25.829Z,1.10
2022-08-22T17:04:46.467Z,1.50
2022-08-22T17:07:41.984Z,2.00
2022-08-22T17:10:54.580Z,1.60
2022-08-22T17:14:07.065Z,1.63
2022-08-22T17:17:10.640Z,1.70
2022-08-22T17:20:41.998Z,1.27
2022-08-22T17:23:59.059Z,1.38
2022-08-22T17:27:14.508Z,1.48
2022-08-22T17:30:21.460Z,1.42
2022-08-22T17:33:30.687Z,1.10
2022-08-22T17:36:26.554Z,1.20
2022-08-22T17:39:40.088Z,1.05
2022-08-22T17:42:56.155Z,0.82
2022-08-22T17:46:02.143Z,0.98
2022-08-22T17:49:01.040Z,1.10
2022-08-22T17:51:58.365Z,1.00
2022-08-22T17:55:14.352Z,1.10
2022-08-22T17:58:31.669Z,1.05
2022-08-22T18:02:01.011Z,1.10
2022-08-22T18:05:15.921Z,1.13
2022-08-22T18:09:13.408Z,0.93
2022-08-22T18:11:48.209Z,1.20
2022-08-22T18:14:53.997Z,1.10
2022-08-22T18:18:36.542Z,0.95
2022-08-22T18:21:42.174Z,0.80
2022-08-22T18:24:50.785Z,1.02
2022-08-22T18:28:07.170Z,0.90
2022-08-22T18:31:22.767Z,1.10
2022-08-22T18:34:21.992Z,1.10
2022-08-22T18:37:24.720Z,0.93
2022-08-22T18:40:28.931Z,0.95
2022-08-22T18:46:33.874Z,0.90
2022-08-22T18:49:28.469Z,1.13
2022-08-22T18:52:29.195Z,1.10
2022-08-22T18:55:54.159Z,0.90
2022-08-22T18:59:11.343Z,1.40
2022-08-22T19:02:36.414Z,0.93
2022-08-22T19:06:04.171Z,1.10
2022-08-22T19:09:19.135Z,1.20
2022-08-22T19:12:20.740Z,0.95
2022-08-22T19:15:28.125Z,1.23
2022-08-22T19:18:28.692Z,1.30
2022-08-22T19:21:44.340Z,1.10
2022-08-22T19:25:08.953Z,1.08
2022-08-22T19:28:12.746Z,0.98
2022-08-22T19:31:45.704Z,0.77
2022-08-22T19:34:49.083Z,0.90
2022-08-22T19:38:02.181Z,0.95
2022-08-22T19:40:59.106Z,0.88
2022-08-22T19:43:54.020Z,1.00
2022-08-22T19:47:28.116Z,0.93
2022-08-22T19:50:22.654Z,0.80
2022-08-22T19:54:16.440Z,0.90
2022-08-22T19:57:24.485Z,0.73
2022-08-22T20:00:43.231Z,0.70
2022-08-22T20:03:54.021Z,0.60
2022-08-22T20:07:16.938Z,0.73
2022-08-22T20:10:44.340Z,0.60
2022-08-22T20:13:39.936Z,0.70
2022-08-22T20:17:11.780Z,1.05
2022-08-22T20:20:35.076Z,0.80
2022-08-22T20:23:34.215Z,0.60
2022-08-22T20:26:28.765Z,0.60
2022-08-22T20:29:27.393Z,0.80
2022-08-22T20:32:26.127Z,0.75
2022-08-22T20:35:27.600Z,0.70
2022-08-22T20:38:28.814Z,0.70
2022-08-22T20:41:42.240Z,0.88
2022-08-22T20:44:43.177Z,0.57
2022-08-22T20:47:41.322Z,0.73
2022-08-22T20:50:37.047Z,0.70
2022-08-22T20:53:31.643Z,0.65
2022-08-22T20:56:55.593Z,1.20
2022-08-22T20:59:59.432Z,1.00
2022-08-22T21:03:22.833Z,1.00
2022-08-22T21:06:30.619Z,0.70
2022-08-22T21:09:43.116Z,0.90
2022-08-22T21:12:37.704Z,1.70
2022-08-22T21:15:39.709Z,1.00
2022-08-22T21:18:38.325Z,1.10
2022-08-22T21:21:35.638Z,1.00
2022-08-22T21:24:30.227Z,0.88
2022-08-22T21:27:30.141Z,1.00
2022-08-22T21:30:30.610Z,1.10
2022-08-22T21:33:26.712Z,1.35
2022-08-22T21:36:25.689Z,0.95
2022-08-22T21:39:31.355Z,1.60
2022-08-22T21:42:40.781Z,1.40
2022-08-22T21:45:41.100Z,1.85
2022-08-22T21:48:46.168Z,2.28
2022-08-22T21:51:47.894Z,2.45
2022-08-22T21:54:42.760Z,2.50
2022-08-22T21:57:38.328Z,2.55
2022-08-22T22:00:53.225Z,2.00
2022-08-22T22:03:47.793Z,1.80
2022-08-22T22:06:42.385Z,1.73
2022-08-22T22:09:36.974Z,1.75
2022-08-22T22:12:32.454Z,1.70
2022-08-22T22:15:30.156Z,1.60
2022-08-22T22:18:28.226Z,1.70
2022-08-22T22:21:22.933Z,2.03
2022-08-22T22:24:17.432Z,1.88
2022-08-22T22:27:16.855Z,1.95
2022-08-22T22:30:12.212Z,2.15
2022-08-22T22:33:08.676Z,1.27
2022-08-22T22:36:15.591Z,1.65
2022-08-22T22:39:10.691Z,1.95
2022-08-22T22:42:05.657Z,2.60
2022-08-22T22:45:00.505Z,3.08
2022-08-22T22:47:55.233Z,2.45
2022-08-22T22:50:49.835Z,3.03
2022-08-22T22:53:46.120Z,3.28
2022-08-22T22:56:40.652Z,2.17
2022-08-22T22:59:36.109Z,3.00
2022-08-22T23:02:30.579Z,2.03
2022-08-22T23:05:25.289Z,2.38
2022-08-22T23:08:19.794Z,2.22
2022-08-22T23:11:21.251Z,1.70
2022-08-22T23:14:15.753Z,1.63
2022-08-22T23:17:10.578Z,1.40
2022-08-22T23:20:06.888Z,2.00
2022-08-22T23:23:01.471Z,2.30
2022-08-22T23:25:55.955Z,2.10
2022-08-22T23:28:50.545Z,1.60
2022-08-22T23:31:55.068Z,1.65
2022-08-22T23:34:50.737Z,1.20
2022-08-22T23:37:45.464Z,1.20
2022-08-22T23:40:40.092Z,1.58
2022-08-22T23:43:34.788Z,1.15
2022-08-22T23:46:31.314Z,1.13
2022-08-22T23:49:26.064Z,1.40
2022-08-22T23:52:21.919Z,1.00
2022-08-22T23:55:16.549Z,1.02
2022-08-22T23:58:11.224Z,1.98
